Time;durP1;ratioP1;P1;durP2;ratioP2;P2;SDS_P1;SDS_P2;PMS_P1;PMS_P2;Temp;Humidity;BMP_temperature;BMP_pressure;BME280_temperature;BME280_humidity;BME280_pressure;Samples;Min_cycle;Max_cycle;Signal;HPM_P1;HPM_P2
2023/06/26 00:01:42;;;;;;;5.23;4.50;;;23.00;73.30;;;;;;5049548;28;20627;-63
2023/06/26 00:04:14;;;;;;;6.33;4.50;;;23.00;73.30;;;;;;5050156;28;20209;-63
2023/06/26 00:06:42;;;;;;;6.13;4.33;;;22.90;73.40;;;;;;5051345;28;20692;-63
2023/06/26 00:09:09;;;;;;;4.97;4.10;;;22.90;73.60;;;;;;5048465;28;20568;-63
2023/06/26 00:11:36;;;;;;;5.73;4.47;;;22.80;73.90;;;;;;5049161;28;20540;-63
2023/06/26 00:14:03;;;;;;;5.20;4.70;;;22.80;74.10;;;;;;5043734;28;20251;-63
2023/06/26 00:16:30;;;;;;;5.20;4.00;;;22.70;74.40;;;;;;5040808;28;20225;-63
2023/06/26 00:18:58;;;;;;;4.37;3.70;;;22.70;74.60;;;;;;5031990;28;20275;-63
2023/06/26 00:21:27;;;;;;;5.37;4.40;;;22.60;74.70;;;;;;5045640;28;20340;-63
2023/06/26 00:23:57;;;;;;;6.97;4.40;;;22.60;74.90;;;;;;5046049;28;20226;-63
2023/06/26 00:26:26;;;;;;;4.53;4.00;;;22.60;75.10;;;;;;5045887;28;20195;-63
2023/06/26 00:28:53;;;;;;;4.87;3.80;;;22.60;75.20;;;;;;5032782;28;20227;-63
2023/06/26 00:31:20;;;;;;;8.50;4.43;;;22.50;75.40;;;;;;5044437;28;20220;-63
2023/06/26 00:33:47;;;;;;;4.70;4.20;;;22.50;75.60;;;;;;5043844;28;20199;-63
2023/06/26 00:36:17;;;;;;;6.27;4.10;;;22.50;75.90;;;;;;5041831;28;20226;-63
2023/06/26 00:38:44;;;;;;;4.57;4.17;;;22.50;76.00;;;;;;5049668;28;20198;-63
2023/06/26 00:41:12;;;;;;;6.87;4.07;;;22.40;76.00;;;;;;5030507;28;20207;-63
2023/06/26 00:43:40;;;;;;;6.20;4.97;;;22.40;76.10;;;;;;5033310;28;20214;-63
2023/06/26 00:46:11;;;;;;;6.10;4.30;;;22.40;76.30;;;;;;5034153;28;20599;-64
2023/06/26 00:48:43;;;;;;;6.17;4.27;;;22.40;76.40;;;;;;5047875;28;20654;-63
2023/06/26 00:51:12;;;;;;;8.20;4.60;;;22.30;76.60;;;;;;5044875;28;20210;-63
2023/06/26 00:53:39;;;;;;;5.00;4.50;;;22.30;76.80;;;;;;5031531;28;20552;-63
2023/06/26 00:56:07;;;;;;;5.17;4.67;;;22.30;77.00;;;;;;5048443;28;20203;-63
2023/06/26 00:58:36;;;;;;;5.07;4.57;;;22.20;77.20;;;;;;5042206;28;20641;-63
2023/06/26 01:01:05;;;;;;;5.00;4.47;;;22.20;77.50;;;;;;5043656;28;20207;-63
2023/06/26 01:03:32;;;;;;;4.37;3.93;;;22.10;77.70;;;;;;5045514;28;20274;-63
2023/06/26 01:06:01;;;;;;;4.83;4.13;;;22.10;77.80;;;;;;5048600;28;20328;-63
2023/06/26 01:08:28;;;;;;;5.10;4.07;;;22.10;77.80;;;;;;5058971;28;20306;-63
2023/06/26 01:10:56;;;;;;;6.33;4.20;;;22.10;77.90;;;;;;5046283;28;20670;-63
2023/06/26 01:13:24;;;;;;;6.27;4.40;;;22.10;77.90;;;;;;5048003;28;20195;-63
2023/06/26 01:15:52;;;;;;;5.87;4.13;;;22.10;77.90;;;;;;5034446;28;20214;-63
2023/06/26 01:18:19;;;;;;;6.60;4.80;;;22.00;77.90;;;;;;5030726;28;20198;-63
2023/06/26 01:20:47;;;;;;;6.30;4.20;;;22.00;78.10;;;;;;5046812;28;20195;-63
2023/06/26 01:23:36;;;;;;;8.73;4.33;;;22.00;78.20;;;;;;5046643;28;20273;-63
2023/06/26 01:26:22;;;;;;;5.27;4.77;;;21.90;78.30;;;;;;5043253;28;20203;-63
2023/06/26 01:28:53;;;;;;;4.93;3.97;;;21.90;78.40;;;;;;5045877;28;20200;-63
2023/06/26 01:31:20;;;;;;;6.00;4.53;;;21.90;78.30;;;;;;5042414;28;20211;-63
2023/06/26 01:33:51;;;;;;;4.80;4.33;;;21.90;78.30;;;;;;5030413;28;20272;-63
2023/06/26 01:36:20;;;;;;;6.10;4.37;;;21.90;78.40;;;;;;5063554;28;20202;-63
2023/06/26 01:38:47;;;;;;;5.57;4.50;;;21.90;78.50;;;;;;5032118;28;20199;-63
2023/06/26 01:41:18;;;;;;;4.63;4.10;;;21.90;78.70;;;;;;5044862;28;20294;-64
2023/06/26 01:44:03;;;;;;;5.17;4.37;;;21.90;78.70;;;;;;5043278;28;20204;-63
2023/06/26 01:46:40;;;;;;;8.23;4.80;;;21.90;78.60;;;;;;5045979;28;20570;-63
2023/06/26 01:49:21;;;;;;;4.23;3.73;;;21.90;78.40;;;;;;5046127;28;20607;-63
2023/06/26 01:52:08;;;;;;;5.20;4.27;;;21.90;78.30;;;;;;5026127;28;20223;-67
2023/06/26 01:54:44;;;;;;;6.00;4.40;;;21.90;78.30;;;;;;5061697;28;20218;-63
2023/06/26 01:57:11;;;;;;;5.47;4.30;;;21.90;78.60;;;;;;5031380;28;20272;-63
2023/06/26 01:59:41;;;;;;;5.90;4.97;;;21.90;78.80;;;;;;5016990;28;20237;-64
2023/06/26 02:02:11;;;;;;;4.70;4.27;;;21.80;78.90;;;;;;5043839;28;20261;-63
2023/06/26 02:04:39;;;;;;;5.67;4.70;;;21.80;79.10;;;;;;5061827;28;20220;-63
2023/06/26 02:07:06;;;;;;;5.00;4.33;;;21.70;79.20;;;;;;5029939;28;20204;-63
2023/06/26 02:09:33;;;;;;;7.60;4.50;;;21.70;79.30;;;;;;5040778;28;20656;-63
2023/06/26 02:12:00;;;;;;;6.17;4.90;;;21.70;79.30;;;;;;5042628;28;20864;-63
2023/06/26 02:14:27;;;;;;;8.77;5.10;;;21.70;79.30;;;;;;5032131;28;20672;-64
2023/06/26 02:16:54;;;;;;;6.60;4.37;;;21.70;79.30;;;;;;5033580;28;20590;-63
2023/06/26 02:19:22;;;;;;;6.17;4.90;;;21.70;79.40;;;;;;5048026;28;20659;-63
2023/06/26 02:21:49;;;;;;;5.10;4.47;;;21.60;79.30;;;;;;5045255;28;20214;-63
2023/06/26 02:24:16;;;;;;;4.73;4.27;;;21.60;79.30;;;;;;5044620;28;20695;-63
2023/06/26 02:26:44;;;;;;;5.53;4.17;;;21.60;79.40;;;;;;5042347;28;20272;-63
2023/06/26 02:29:11;;;;;;;5.67;4.70;;;21.60;79.50;;;;;;5043421;28;20535;-63
2023/06/26 02:31:39;;;;;;;5.37;4.90;;;21.60;79.70;;;;;;5043988;28;20379;-63
2023/06/26 02:34:07;;;;;;;4.73;4.33;;;21.60;79.70;;;;;;5040815;28;20211;-63
2023/06/26 02:36:34;;;;;;;10.87;5.50;;;21.60;79.70;;;;;;5030946;28;20209;-64
2023/06/26 02:39:04;;;;;;;5.90;4.90;;;21.50;79.70;;;;;;5043885;28;20668;-63
2023/06/26 02:41:33;;;;;;;6.53;4.53;;;21.50;79.70;;;;;;5025227;28;20699;-63
2023/06/26 02:44:00;;;;;;;5.90;3.83;;;21.50;79.70;;;;;;5028054;28;20531;-63
2023/06/26 02:46:28;;;;;;;7.63;4.70;;;21.50;79.70;;;;;;5032961;28;20241;-63
2023/06/26 02:48:56;;;;;;;7.20;4.73;;;21.50;79.60;;;;;;5043397;28;20199;-63
2023/06/26 02:51:24;;;;;;;6.83;4.97;;;21.50;79.60;;;;;;5030882;28;20708;-63
2023/06/26 02:53:52;;;;;;;7.37;5.07;;;21.50;79.70;;;;;;5042583;28;20195;-63
2023/06/26 02:56:20;;;;;;;4.60;4.13;;;21.50;79.80;;;;;;5032535;28;20199;-64
2023/06/26 02:58:47;;;;;;;6.33;4.50;;;21.40;79.90;;;;;;5048984;28;20703;-63
2023/06/26 03:01:14;;;;;;;4.40;4.00;;;21.40;80.00;;;;;;5044027;28;20272;-63
2023/06/26 03:03:46;;;;;;;5.57;4.23;;;21.40;80.20;;;;;;5030997;28;20203;-63
2023/06/26 03:06:16;;;;;;;4.50;4.10;;;21.40;80.30;;;;;;5044924;28;20230;-63
2023/06/26 03:08:44;;;;;;;4.90;4.40;;;21.40;80.50;;;;;;5032245;28;20210;-63
2023/06/26 03:11:14;;;;;;;4.80;4.40;;;21.40;80.50;;;;;;5035448;28;20268;-63
2023/06/26 03:13:41;;;;;;;5.57;4.63;;;21.30;80.50;;;;;;5047941;28;20199;-63
2023/06/26 03:16:08;;;;;;;5.17;4.50;;;21.30;80.60;;;;;;5037384;28;20279;-63
2023/06/26 03:18:35;;;;;;;5.20;3.87;;;21.20;80.50;;;;;;5047323;28;20637;-63
2023/06/26 03:21:02;;;;;;;7.03;4.63;;;21.30;80.70;;;;;;5036488;28;20691;-63
2023/06/26 03:23:30;;;;;;;7.73;4.43;;;21.20;80.70;;;;;;5032986;28;20243;-63
2023/06/26 03:25:57;;;;;;;5.60;4.43;;;21.20;80.90;;;;;;5047179;28;20234;-63
2023/06/26 03:28:26;;;;;;;5.27;3.87;;;21.20;81.20;;;;;;5032377;28;20216;-63
2023/06/26 03:30:54;;;;;;;4.60;4.20;;;21.20;81.40;;;;;;5037202;28;20246;-63
2023/06/26 03:33:21;;;;;;;5.80;4.20;;;21.20;81.50;;;;;;5050145;28;20199;-63
2023/06/26 03:35:48;;;;;;;5.00;4.50;;;21.20;82.20;;;;;;5049783;28;20271;-63
2023/06/26 03:38:15;;;;;;;6.13;4.03;;;21.20;81.50;;;;;;5032987;28;20542;-63
2023/06/26 03:40:44;;;;;;;4.87;4.40;;;21.20;81.60;;;;;;5032447;28;20298;-63
2023/06/26 03:43:11;;;;;;;5.43;4.77;;;21.20;81.70;;;;;;5033796;28;20265;-63
2023/06/26 03:45:46;;;;;;;6.37;4.53;;;21.10;81.70;;;;;;5034354;28;20211;-63
2023/06/26 03:48:13;;;;;;;5.40;4.40;;;21.20;81.80;;;;;;5033907;28;20231;-64
2023/06/26 03:50:41;;;;;;;8.07;5.00;;;21.10;81.80;;;;;;5034885;28;20199;-64
2023/06/26 03:53:11;;;;;;;5.57;4.70;;;21.10;81.70;;;;;;5036835;28;20595;-63
2023/06/26 03:55:40;;;;;;;5.17;4.67;;;21.20;81.50;;;;;;5042823;28;20234;-66
2023/06/26 03:58:07;;;;;;;5.43;3.97;;;21.10;82.10;;;;;;5035017;28;20203;-63
2023/06/26 04:00:34;;;;;;;5.47;4.50;;;21.10;81.40;;;;;;5046602;28;20186;-63
2023/06/26 04:03:02;;;;;;;8.23;4.47;;;21.10;81.40;;;;;;5050625;28;20790;-63
2023/06/26 04:05:30;;;;;;;5.63;4.53;;;21.10;81.40;;;;;;5045054;28;20286;-63
2023/06/26 04:07:58;;;;;;;5.87;4.57;;;21.10;81.50;;;;;;5030943;28;20198;-63
2023/06/26 04:10:25;;;;;;;5.13;4.63;;;21.10;81.80;;;;;;5034500;28;20194;-63
2023/06/26 04:12:53;;;;;;;6.87;4.93;;;21.10;82.10;;;;;;5046274;28;20229;-63
2023/06/26 04:15:20;;;;;;;5.23;4.40;;;21.10;82.20;;;;;;5046415;28;20210;-64
2023/06/26 04:17:47;;;;;;;7.40;5.33;;;21.10;82.20;;;;;;5048280;28;20202;-64
2023/06/26 04:20:14;;;;;;;5.20;4.70;;;21.10;82.40;;;;;;5044967;28;20205;-63
2023/06/26 04:22:42;;;;;;;5.43;4.67;;;21.10;82.70;;;;;;5044657;28;20207;-63
2023/06/26 04:25:12;;;;;;;9.33;4.97;;;21.10;83.00;;;;;;5045222;28;20321;-63
2023/06/26 04:27:40;;;;;;;6.83;4.90;;;21.10;83.00;;;;;;5047958;28;20604;-63
2023/06/26 04:30:09;;;;;;;8.27;5.80;;;21.20;83.00;;;;;;5048431;28;20203;-63
2023/06/26 04:32:36;;;;;;;12.33;4.80;;;21.20;83.10;;;;;;5044588;28;20234;-63
2023/06/26 04:35:05;;;;;;;10.60;5.63;;;21.20;83.80;;;;;;5046050;28;20195;-63
2023/06/26 04:37:33;;;;;;;5.90;5.00;;;21.30;83.10;;;;;;5047443;28;20191;-63
2023/06/26 04:40:00;;;;;;;8.27;5.53;;;21.30;83.10;;;;;;5042670;28;20294;-63
2023/06/26 04:42:27;;;;;;;5.03;4.60;;;21.40;83.20;;;;;;5034885;28;20638;-63
2023/06/26 04:44:54;;;;;;;8.07;4.57;;;21.40;83.10;;;;;;5047851;28;20527;-64
2023/06/26 04:47:21;;;;;;;7.97;5.20;;;21.50;83.10;;;;;;5048568;28;20210;-63
2023/06/26 04:49:48;;;;;;;5.93;5.30;;;21.50;83.10;;;;;;5046107;28;20206;-63
2023/06/26 04:52:15;;;;;;;6.93;5.17;;;21.50;83.20;;;;;;5045925;28;20655;-63
2023/06/26 04:54:42;;;;;;;6.03;5.43;;;21.60;83.40;;;;;;5047503;28;20191;-63
2023/06/26 04:57:11;;;;;;;5.37;4.87;;;21.60;83.30;;;;;;5042927;28;20211;-66
2023/06/26 04:59:38;;;;;;;6.63;5.57;;;21.70;83.40;;;;;;5045085;28;20235;-63
2023/06/26 05:02:05;;;;;;;6.07;5.20;;;21.70;83.50;;;;;;5044236;28;20206;-63
2023/06/26 05:04:32;;;;;;;8.00;5.20;;;21.80;83.70;;;;;;5031498;28;20540;-63
2023/06/26 05:07:00;;;;;;;7.87;5.90;;;21.80;83.70;;;;;;5052063;28;20206;-63
2023/06/26 05:09:29;;;;;;;7.57;6.20;;;21.90;83.70;;;;;;5046844;28;20195;-63
2023/06/26 05:11:56;;;;;;;8.77;5.80;;;22.00;83.50;;;;;;5048222;28;20226;-63
2023/06/26 05:14:23;;;;;;;7.17;5.40;;;22.10;83.20;;;;;;5047674;28;20551;-63
2023/06/26 05:16:51;;;;;;;7.67;5.60;;;22.20;83.10;;;;;;5044575;28;20666;-63
2023/06/26 05:19:18;;;;;;;6.67;5.97;;;22.30;82.90;;;;;;5043337;28;20202;-63
2023/06/26 05:21:48;;;;;;;7.13;5.90;;;22.40;82.70;;;;;;5029953;28;20215;-63
2023/06/26 05:24:16;;;;;;;7.27;5.57;;;22.50;82.70;;;;;;5047320;28;20277;-63
2023/06/26 05:26:43;;;;;;;7.20;6.30;;;22.60;82.50;;;;;;5044750;28;20203;-63
2023/06/26 05:29:10;;;;;;;8.73;6.90;;;22.80;82.10;;;;;;5047018;28;20290;-63
2023/06/26 05:31:41;;;;;;;7.43;6.37;;;22.90;81.70;;;;;;5046934;28;20227;-63
2023/06/26 05:34:10;;;;;;;7.70;6.30;;;23.00;81.30;;;;;;5044340;28;20230;-63
2023/06/26 05:36:41;;;;;;;8.13;6.60;;;23.20;81.10;;;;;;5045793;28;20194;-64
2023/06/26 05:39:08;;;;;;;10.33;7.27;;;23.30;81.00;;;;;;5049377;28;20202;-63
2023/06/26 05:41:35;;;;;;;8.17;7.37;;;23.40;80.80;;;;;;5044387;28;20221;-63
2023/06/26 05:44:02;;;;;;;7.60;6.60;;;23.60;80.40;;;;;;5041124;28;20211;-63
2023/06/26 05:46:29;;;;;;;9.23;7.13;;;23.70;79.40;;;;;;5049113;28;20202;-63
2023/06/26 05:48:57;;;;;;;7.70;6.10;;;23.70;79.10;;;;;;5045117;28;20198;-63
2023/06/26 05:51:24;;;;;;;7.27;6.53;;;23.80;79.10;;;;;;5042186;28;20230;-63
2023/06/26 05:53:51;;;;;;;8.10;7.40;;;23.90;79.50;;;;;;5040429;28;20635;-64
2023/06/26 05:56:19;;;;;;;8.60;6.40;;;24.00;79.40;;;;;;5046804;28;20256;-64
2023/06/26 05:58:49;;;;;;;10.80;7.60;;;24.10;79.70;;;;;;5047139;28;20195;-64
2023/06/26 06:01:16;;;;;;;9.47;8.00;;;24.20;78.70;;;;;;5044881;28;20537;-63
2023/06/26 06:03:43;;;;;;;9.47;8.00;;;24.20;77.50;;;;;;5041803;28;20655;-63
2023/06/26 06:06:11;;;;;;;8.77;7.87;;;24.20;77.60;;;;;;5038627;28;20207;-63
2023/06/26 06:08:38;;;;;;;14.97;8.70;;;24.30;77.90;;;;;;5045542;28;20203;-63
2023/06/26 06:11:05;;;;;;;15.80;8.70;;;24.50;78.70;;;;;;5043069;28;20210;-64
2023/06/26 06:13:32;;;;;;;10.70;8.47;;;24.60;77.70;;;;;;5047763;28;20606;-63
2023/06/26 06:15:59;;;;;;;9.60;8.70;;;24.70;76.90;;;;;;5046534;28;20335;-65
2023/06/26 06:18:26;;;;;;;16.13;9.37;;;24.80;76.90;;;;;;5049952;28;20205;-63
2023/06/26 06:20:53;;;;;;;10.60;8.37;;;25.00;76.80;;;;;;5047044;28;20253;-63
2023/06/26 06:23:20;;;;;;;9.73;8.80;;;25.10;76.30;;;;;;5045868;28;20255;-64
2023/06/26 06:25:47;;;;;;;12.33;8.93;;;25.30;75.70;;;;;;5043367;28;20249;-64
2023/06/26 06:28:16;;;;;;;11.00;8.00;;;25.40;74.30;;;;;;5042027;28;20214;-63
2023/06/26 06:30:43;;;;;;;9.77;7.83;;;25.50;73.90;;;;;;5027148;28;20287;-63
2023/06/26 06:33:13;;;;;;;9.57;8.53;;;25.70;74.10;;;;;;5040485;28;20717;-62
2023/06/26 06:35:45;;;;;;;8.90;7.93;;;25.80;74.90;;;;;;5043117;28;20256;-64
2023/06/26 06:38:12;;;;;;;8.50;7.60;;;26.00;74.30;;;;;;5041425;28;20214;-64
2023/06/26 06:40:39;;;;;;;9.23;7.97;;;26.20;73.50;;;;;;5041254;28;20199;-63
2023/06/26 06:43:07;;;;;;;8.77;7.87;;;26.40;72.40;;;;;;5039080;28;20220;-63
2023/06/26 06:45:37;;;;;;;9.47;8.57;;;26.60;72.60;;;;;;5045168;28;20225;-63
2023/06/26 06:48:05;;;;;;;8.17;7.33;;;26.70;71.70;;;;;;5045214;28;20617;-64
2023/06/26 06:50:32;;;;;;;8.93;7.50;;;26.90;71.20;;;;;;5047601;28;20621;-64
2023/06/26 06:52:59;;;;;;;9.30;7.13;;;27.00;71.30;;;;;;5046343;28;20549;-63
2023/06/26 06:55:26;;;;;;;7.67;6.97;;;27.10;71.00;;;;;;5048083;28;20206;-63
2023/06/26 06:57:53;;;;;;;8.50;6.63;;;27.30;71.10;;;;;;5049304;28;20205;-64
2023/06/26 07:00:20;;;;;;;7.10;6.37;;;27.50;70.80;;;;;;5045756;28;20196;-64
2023/06/26 07:02:47;;;;;;;7.53;6.83;;;27.70;70.90;;;;;;5045455;28;20210;-63
2023/06/26 07:05:16;;;;;;;7.30;6.60;;;27.90;70.80;;;;;;5044947;28;20206;-63
2023/06/26 07:07:43;;;;;;;6.77;6.17;;;28.10;70.30;;;;;;5038156;28;20212;-62
2023/06/26 07:10:13;;;;;;;10.73;6.10;;;28.30;69.90;;;;;;5042697;28;20210;-65
2023/06/26 07:12:45;;;;;;;7.27;6.50;;;28.50;68.40;;;;;;5041652;28;20219;-66
2023/06/26 07:15:12;;;;;;;7.17;5.83;;;28.70;68.00;;;;;;5042712;28;20217;-67
2023/06/26 07:17:39;;;;;;;8.10;6.40;;;28.90;67.80;;;;;;5031124;28;20199;-67
2023/06/26 07:20:08;;;;;;;9.73;6.03;;;29.10;67.30;;;;;;5043523;28;20207;-67
2023/06/26 07:22:36;;;;;;;7.47;6.60;;;29.20;66.80;;;;;;5044689;28;20198;-64
2023/06/26 07:25:04;;;;;;;6.17;5.50;;;29.40;66.90;;;;;;5043714;28;20247;-64
2023/06/26 07:27:33;;;;;;;6.20;5.60;;;29.50;66.50;;;;;;5042274;28;20222;-63
2023/06/26 07:30:00;;;;;;;6.30;5.70;;;29.70;65.80;;;;;;5040609;28;20207;-64
2023/06/26 07:32:27;;;;;;;6.17;5.60;;;29.90;65.30;;;;;;5039014;28;20233;-63
2023/06/26 07:34:54;;;;;;;6.33;5.73;;;29.90;65.00;;;;;;5044748;28;20195;-66
2023/06/26 07:37:23;;;;;;;5.50;5.00;;;30.10;64.80;;;;;;5041254;28;20661;-66
2023/06/26 07:39:50;;;;;;;5.67;4.87;;;30.30;64.00;;;;;;5042728;28;20499;-68
2023/06/26 07:42:40;;;;;;;6.73;5.00;;;30.40;63.40;;;;;;5038053;28;20199;-63
2023/06/26 07:45:11;;;;;;;6.70;4.60;;;30.50;61.80;;;;;;5041891;28;20207;-65
2023/06/26 07:47:39;;;;;;;6.00;5.40;;;30.60;60.80;;;;;;5040907;28;20535;-64
2023/06/26 07:50:06;;;;;;;6.93;4.80;;;30.70;60.80;;;;;;5046298;28;20203;-67
2023/06/26 07:52:34;;;;;;;5.70;4.70;;;30.80;61.10;;;;;;5041827;28;20605;-64
2023/06/26 07:55:01;;;;;;;6.67;4.83;;;30.90;61.40;;;;;;5063663;28;20583;-64
2023/06/26 07:57:29;;;;;;;4.60;4.20;;;31.00;60.10;;;;;;5045110;28;20205;-64
2023/06/26 07:59:56;;;;;;;4.53;4.13;;;31.10;59.50;;;;;;5049855;28;20642;-63
2023/06/26 08:02:23;;;;;;;4.70;4.30;;;31.30;58.90;;;;;;5044366;28;20206;-63
2023/06/26 08:04:50;;;;;;;5.47;4.20;;;31.30;58.50;;;;;;5043461;28;20253;-65
2023/06/26 08:07:18;;;;;;;6.20;4.20;;;31.40;57.80;;;;;;5055682;28;20198;-64
2023/06/26 08:09:45;;;;;;;6.23;4.00;;;31.50;57.90;;;;;;5040343;28;20222;-66
2023/06/26 08:12:15;;;;;;;5.27;4.03;;;31.60;56.70;;;;;;5046071;28;20222;-66
2023/06/26 08:14:44;;;;;;;4.40;3.97;;;31.60;56.30;;;;;;5043578;28;20195;-66
2023/06/26 08:17:14;;;;;;;6.97;4.07;;;31.70;55.90;;;;;;5041645;28;20298;-66
2023/06/26 08:19:41;;;;;;;5.77;4.40;;;31.70;55.60;;;;;;5043347;28;20201;-63
2023/06/26 08:22:08;;;;;;;7.20;4.10;;;31.80;55.40;;;;;;5046044;28;20218;-65
2023/06/26 08:24:36;;;;;;;6.57;4.23;;;31.80;56.40;;;;;;5025090;28;20585;-65
2023/06/26 08:27:04;;;;;;;4.93;4.47;;;31.90;56.80;;;;;;5025680;28;20206;-66
2023/06/26 08:29:31;;;;;;;8.00;4.27;;;32.00;55.80;;;;;;5027748;28;20195;-66
2023/06/26 08:32:00;;;;;;;5.20;3.97;;;32.10;53.60;;;;;;5021529;28;20619;-65
2023/06/26 08:34:27;;;;;;;4.20;3.80;;;32.10;54.10;;;;;;5026719;28;20214;-64
2023/06/26 08:36:54;;;;;;;6.10;4.30;;;32.30;53.90;;;;;;5025320;28;20254;-64
2023/06/26 08:39:21;;;;;;;5.90;3.87;;;32.40;53.00;;;;;;5021430;28;20204;-63
2023/06/26 08:41:49;;;;;;;4.53;4.13;;;32.50;52.60;;;;;;5019726;28;20574;-67
2023/06/26 08:44:16;;;;;;;4.73;4.23;;;32.60;52.40;;;;;;5020109;28;20196;-65
2023/06/26 08:46:43;;;;;;;4.47;4.07;;;32.70;51.40;;;;;;5020079;28;20233;-63
2023/06/26 08:49:21;;;;;;;5.17;4.33;;;32.80;51.70;;;;;;5022901;28;20250;-63
2023/06/26 08:51:55;;;;;;;5.27;4.63;;;32.80;52.10;;;;;;5029026;28;20276;-64
2023/06/26 08:54:29;;;;;;;6.47;4.63;;;32.90;52.70;;;;;;5028076;28;20595;-66
2023/06/26 08:56:57;;;;;;;4.60;3.90;;;33.00;52.00;;;;;;5024907;28;20235;-65
2023/06/26 08:59:24;;;;;;;6.77;4.03;;;33.10;51.90;;;;;;5026658;28;20545;-66
2023/06/26 09:01:52;;;;;;;4.10;3.40;;;33.10;51.20;;;;;;5027221;28;20262;-64
2023/06/26 09:04:19;;;;;;;5.10;3.73;;;33.30;50.50;;;;;;5029208;28;20701;-65
2023/06/26 09:06:46;;;;;;;6.90;4.00;;;33.40;49.70;;;;;;5032553;28;20207;-63
2023/06/26 09:09:13;;;;;;;6.20;3.87;;;33.50;49.10;;;;;;5032371;28;20269;-64
2023/06/26 09:11:41;;;;;;;6.03;4.30;;;33.60;49.10;;;;;;5024357;28;20517;-65
2023/06/26 09:14:10;;;;;;;4.73;4.33;;;33.60;48.00;;;;;;5025422;28;20302;-64
2023/06/26 09:16:41;;;;;;;4.80;4.40;;;33.70;48.10;;;;;;5022641;28;20234;-66
2023/06/26 09:19:11;;;;;;;5.90;4.10;;;33.70;48.80;;;;;;5021591;28;20219;-64
2023/06/26 09:21:42;;;;;;;6.27;3.73;;;33.80;49.50;;;;;;5027583;28;20266;-63
2023/06/26 09:24:10;;;;;;;6.00;4.50;;;33.90;49.10;;;;;;5029179;28;20247;-64
2023/06/26 09:26:38;;;;;;;4.53;4.13;;;34.00;49.00;;;;;;5023009;28;20262;-66
2023/06/26 09:29:06;;;;;;;4.70;3.63;;;34.10;48.70;;;;;;5020837;28;20265;-64
2023/06/26 09:31:36;;;;;;;5.57;4.03;;;34.20;48.30;;;;;;5021576;28;20211;-64
2023/06/26 09:34:08;;;;;;;4.17;3.80;;;34.30;47.40;;;;;;5025923;28;20222;-64
2023/06/26 09:36:36;;;;;;;4.23;3.73;;;34.30;47.80;;;;;;5024432;28;20202;-66
2023/06/26 09:39:10;;;;;;;4.60;4.20;;;34.40;48.20;;;;;;5027654;28;20665;-66
2023/06/26 09:41:44;;;;;;;6.97;4.28;;;34.50;46.00;;;;;;5026251;28;20227;-65
2023/06/26 09:44:13;;;;;;;4.90;4.00;;;34.50;46.40;;;;;;5024543;28;20226;-65
2023/06/26 09:46:41;;;;;;;4.67;4.20;;;34.50;44.80;;;;;;5024867;28;20195;-65
2023/06/26 09:49:12;;;;;;;5.18;4.13;;;34.40;45.20;;;;;;5020641;28;20699;-64
2023/06/26 09:51:42;;;;;;;4.90;4.50;;;34.40;45.90;;;;;;5020149;28;20627;-64
2023/06/26 09:54:10;;;;;;;4.75;4.32;;;34.50;46.10;;;;;;5016949;28;20202;-64
2023/06/26 09:56:37;;;;;;;5.07;4.57;;;34.60;46.30;;;;;;5022042;28;20235;-66
2023/06/26 09:59:05;;;;;;;5.30;3.93;;;34.70;45.70;;;;;;5020026;28;20203;-66
2023/06/26 10:01:33;;;;;;;4.70;4.30;;;34.80;45.40;;;;;;5023578;28;20199;-66
2023/06/26 10:04:03;;;;;;;6.20;4.17;;;35.00;45.20;;;;;;5026554;28;20200;-64
2023/06/26 10:06:36;;;;;;;4.35;3.95;;;35.00;44.10;;;;;;5031752;28;20602;-66
2023/06/26 10:09:04;;;;;;;5.13;4.63;;;35.10;44.50;;;;;;5021083;28;20200;-63
2023/06/26 10:12:06;;;;;;;4.47;4.10;;;35.10;45.10;;;;;;5020144;28;20552;-64
2023/06/26 10:14:39;;;;;;;5.82;4.07;;;35.20;44.10;;;;;;5013970;28;20620;-65
2023/06/26 10:17:14;;;;;;;5.72;5.10;;;35.30;42.70;;;;;;5024510;28;20293;-65
2023/06/26 10:19:44;;;;;;;5.65;4.20;;;35.20;41.70;;;;;;5029216;28;20194;-67
2023/06/26 10:22:18;;;;;;;4.70;4.30;;;35.10;43.30;;;;;;5027267;28;20208;-64
2023/06/26 10:24:47;;;;;;;5.18;4.47;;;35.10;44.50;;;;;;5023295;28;20553;-64
2023/06/26 10:27:18;;;;;;;6.53;4.30;;;35.00;44.70;;;;;;5022709;28;20287;-66
2023/06/26 10:29:57;;;;;;;8.57;4.60;;;35.10;44.70;;;;;;5022758;28;20227;-64
2023/06/26 10:32:26;;;;;;;4.35;4.05;;;35.20;44.20;;;;;;5017561;28;20261;-66
2023/06/26 10:34:55;;;;;;;4.78;4.38;;;35.30;44.00;;;;;;5019469;28;20196;-65
2023/06/26 10:37:47;;;;;;;4.90;4.15;;;35.40;43.90;;;;;;5024716;28;20616;-66
2023/06/26 10:40:22;;;;;;;5.03;4.57;;;35.50;44.00;;;;;;5028240;28;20253;-65
2023/06/26 10:43:04;;;;;;;7.57;4.13;;;35.60;44.10;;;;;;5019551;28;20215;-64
2023/06/26 10:45:34;;;;;;;7.18;5.38;;;35.70;43.50;;;;;;5025238;28;20203;-64
2023/06/26 10:48:04;;;;;;;5.13;4.05;;;35.80;43.00;;;;;;5026764;28;20199;-65
2023/06/26 10:50:35;;;;;;;4.72;3.88;;;35.80;43.20;;;;;;5021049;28;20592;-64
2023/06/26 10:53:09;;;;;;;6.00;4.72;;;35.80;43.30;;;;;;5016505;28;20321;-66
2023/06/26 10:55:37;;;;;;;5.60;5.10;;;35.80;44.50;;;;;;5021419;28;20637;-66
2023/06/26 10:58:24;;;;;;;5.22;4.72;;;35.80;43.70;;;;;;5020715;28;20583;-61
2023/06/26 11:00:52;;;;;;;5.03;4.28;;;35.80;43.60;;;;;;5022558;28;20195;-67
2023/06/26 11:03:23;;;;;;;8.45;4.53;;;35.90;43.40;;;;;;5024652;28;20203;-64
2023/06/26 11:06:12;;;;;;;5.82;5.20;;;36.00;42.90;;;;;;5019957;28;20283;-65
2023/06/26 11:08:49;;;;;;;5.53;4.55;;;36.00;43.10;;;;;;5041454;28;20269;-64
2023/06/26 11:11:17;;;;;;;5.30;4.80;;;36.00;41.10;;;;;;5021331;28;20199;-65
2023/06/26 11:13:46;;;;;;;7.30;4.23;;;35.90;41.50;;;;;;5023388;28;20223;-65
2023/06/26 11:16:14;;;;;;;7.47;4.77;;;35.80;42.30;;;;;;5028984;28;20660;-63
2023/06/26 11:18:42;;;;;;;5.40;4.65;;;35.80;41.20;;;;;;5020663;28;20214;-66
2023/06/26 11:21:15;;;;;;;5.57;4.20;;;35.80;42.20;;;;;;5021935;28;20198;-64
2023/06/26 11:23:47;;;;;;;6.20;4.10;;;35.80;41.20;;;;;;5024658;28;20208;-68
2023/06/26 11:26:21;;;;;;;6.70;4.68;;;35.70;40.70;;;;;;5039635;28;20231;-64
2023/06/26 11:28:55;;;;;;;4.57;4.10;;;35.50;41.60;;;;;;5044533;28;20218;-64
2023/06/26 11:31:32;;;;;;;5.57;4.57;;;35.50;43.60;;;;;;5044267;28;20206;-65
2023/06/26 11:34:02;;;;;;;6.30;4.28;;;35.50;42.20;;;;;;5042614;28;20221;-69
2023/06/26 11:36:30;;;;;;;6.22;4.68;;;35.50;41.10;;;;;;5047218;28;20214;-67
2023/06/26 11:39:01;;;;;;;5.15;4.68;;;35.40;42.40;;;;;;5044109;28;20547;-67
2023/06/26 11:41:30;;;;;;;5.10;4.63;;;35.40;44.00;;;;;;5041721;28;20273;-67
2023/06/26 11:44:01;;;;;;;6.15;4.45;;;35.50;44.30;;;;;;5033225;28;20217;-67
2023/06/26 11:46:32;;;;;;;7.63;4.53;;;35.70;43.60;;;;;;5042665;28;20211;-67
2023/06/26 11:49:05;;;;;;;8.80;5.10;;;35.70;43.00;;;;;;5046885;28;20662;-67
2023/06/26 11:51:33;;;;;;;7.15;4.20;;;35.90;42.30;;;;;;5051997;28;20655;-67
2023/06/26 11:54:04;;;;;;;7.20;4.30;;;36.00;42.10;;;;;;5053724;28;20218;-67
2023/06/26 11:56:32;;;;;;;5.25;4.03;;;36.10;41.70;;;;;;5042033;28;20208;-67
2023/06/26 11:59:04;;;;;;;4.60;4.20;;;36.20;41.30;;;;;;5049092;28;20630;-67
2023/06/26 12:01:45;;;;;;;7.68;4.72;;;36.20;40.40;;;;;;5046501;28;20229;-67
2023/06/26 12:04:15;;;;;;;4.70;4.30;;;36.30;39.80;;;;;;5048151;28;20521;-67
2023/06/26 12:06:47;;;;;;;7.28;4.85;;;36.30;40.30;;;;;;5044525;28;20212;-67
2023/06/26 12:09:17;;;;;;;6.80;4.47;;;36.30;41.20;;;;;;5047176;28;20207;-67
2023/06/26 12:11:48;;;;;;;5.40;4.90;;;36.40;41.80;;;;;;5049890;28;20202;-67
2023/06/26 12:14:16;;;;;;;4.45;4.07;;;36.40;40.70;;;;;;5043454;28;20223;-67
2023/06/26 12:16:43;;;;;;;5.50;5.05;;;36.30;40.10;;;;;;5041364;28;20649;-68
2023/06/26 12:19:11;;;;;;;4.80;4.32;;;36.30;40.30;;;;;;5040292;28;20234;-67
2023/06/26 12:21:39;;;;;;;6.65;5.03;;;36.30;39.70;;;;;;5045425;28;20199;-67
2023/06/26 12:24:08;;;;;;;7.35;4.60;;;36.30;39.50;;;;;;5043571;28;20230;-67
2023/06/26 12:26:38;;;;;;;4.72;4.25;;;36.30;38.80;;;;;;5051903;28;20210;-69
2023/06/26 12:29:08;;;;;;;4.50;4.10;;;36.20;39.80;;;;;;5042033;28;20206;-68
2023/06/26 12:31:38;;;;;;;7.35;4.05;;;36.20;40.90;;;;;;5045913;28;20206;-67
2023/06/26 12:34:18;;;;;;;4.82;4.30;;;36.20;41.20;;;;;;5028875;28;20222;-68
2023/06/26 12:36:48;;;;;;;6.90;4.28;;;36.20;41.20;;;;;;5047406;28;20203;-67
2023/06/26 12:39:20;;;;;;;4.80;4.40;;;36.30;41.10;;;;;;5044288;28;20630;-67
2023/06/26 12:41:51;;;;;;;4.53;4.13;;;36.30;41.10;;;;;;5044030;28;20206;-67
2023/06/26 12:44:26;;;;;;;3.92;3.63;;;36.30;41.20;;;;;;5046864;28;20203;-66
2023/06/26 12:47:01;;;;;;;5.97;4.53;;;36.30;40.10;;;;;;5045625;28;20309;-66
2023/06/26 12:49:34;;;;;;;5.28;4.47;;;36.20;39.00;;;;;;5044517;28;20526;-64
2023/06/26 12:52:03;;;;;;;6.25;4.40;;;36.20;40.80;;;;;;5049810;28;20541;-66
2023/06/26 12:54:31;;;;;;;4.43;4.03;;;36.20;39.90;;;;;;5043322;28;20295;-64
2023/06/26 12:56:59;;;;;;;5.80;4.50;;;36.10;39.30;;;;;;5040306;28;20207;-66